Mashantucket, Connecticut
Current Conditions -  °F | °C
As of 5:56 PM on Thursday 20 Nov 2014 (Local Time) from KGON Reporting Station
Few Clouds Few Clouds  
Wind Chill: 35°   Ceiling: Unl
Heat Index: 42°   Visibility: 8mi
Dew Point: 22°   Wind: 14mph
Humidity: 45%   Direction: 280°W
Pressure: 29.85"   Gusts: 21mph
Location:  41.47°N, 71.96°W
Report Text: KGON 202256Z 28012G18KT 8SM FEW060 06/M06 A2985 RMK AO2 PK WND 26029/2159 SLP108 T00561056
Loading
Personal Weather Stations






























Interactive Weather Map New forecast layout! Learn more

10-Day Weather Forecast

Advertisements
Track Severe Weather on mobile